Προγνώσεις καιρού υψηλής ανάλυσης για την περιοχή Περαία Θεσσαλονίκης (ΚΑΠΠΑ), με εξειδικευμένη μετεωρολογική επιμέλεια από τον μετεωρολόγο Χρήστο Χατζούδη και τη WeatherDom. Τα δεδομένα προσφέρουν αναλυτική εικόνα των καιρικών συνθηκών ενός μοντέλου με ανάλυση 1.7 χλμ .
Σποτ: Perea - lat: 40.522684 long: 22.945406
Ενημέρωση πρόγνωσης: 04/09/2026 04:37
Ανατολή: 06:56 - Δύση: 19:57
Πρώτο φως: 05:57 - Τελευταίο φως: 20:57
04/09
Παρασκευή 4 Σεπτεμβρίου Ώρα Καιρός Θερμ. (°C) Υγρασία (%) Άνεμος (Knts) Ριπές (Knts) Διεύθ. 03:00 26° 61% 9 12
04:00 24° 74% 8 11
05:00 26° 62% 9 12
06:00 26° 60% 11 14
07:00 26° 60% 11 14
08:00 25° 61% 12 15
09:00 26° 52% 12 15
10:00 27° 46% 8 11
11:00 27° 43% 6 9
12:00 28° 49% 7 10
13:00 28° 48% 4 6
14:00 29° 50% 2 4
15:00 29° 45% 2 4
16:00 30° 42% 2 3
17:00 30° 43% 2 4
18:00 30° 48% 3 5
19:00 30° 41% 2 3
20:00 28° 63% 5 7
21:00 26° 59% 5 8
22:00 25° 60% 0 0
23:00 24° 76% 4 6
05/09
Σάββατο 5 Σεπτεμβρίου Ώρα Καιρός Θερμ. (°C) Υγρασία (%) Άνεμος (Knts) Ριπές (Knts) Διεύθ. 00:00 28° 52% 12 15
01:00 26° 59% 7 10
02:00 27° 55% 9 12
03:00 27° 54% 14 17
04:00 26° 55% 1 5
05:00 25° 59% 1 4
06:00 25° 64% 1 4
07:00 26° 63% 1 4
08:00 26° 62% 1 4
09:00 27° 61% 1 4
10:00 28° 59% 1 5
11:00 28° 57% 2 5
12:00 29° 55% 3 6
13:00 30° 54% 3 7
14:00 30° 53% 4 8
15:00 31° 52% 5 9
16:00 31° 53% 6 10
17:00 30° 53% 7 11
18:00 30° 54% 8 12
19:00 29° 57% 7 11
20:00 28° 60% 6 10
21:00 27° 63% 5 9
22:00 27° 62% 4 8
23:00 26° 61% 4 8
06/09
Κυριακή 6 Σεπτεμβρίου Ώρα Καιρός Θερμ. (°C) Υγρασία (%) Άνεμος (Knts) Ριπές (Knts) Διεύθ. 00:00 26° 60% 4 7
01:00 26° 57% 2 4
02:00 27° 54% 0 0
03:00 27° 49% 1 4
04:00 27° 48% 2 5
05:00 26° 47% 2 5
06:00 26° 46% 3 6
07:00 27° 47% 4 7
08:00 27° 48% 4 7
09:00 28° 49% 5 8
10:00 29° 50% 6 10
11:00 31° 52% 8 12
12:00 32° 53% 9 14
13:00 33° 55% 8 13
14:00 33° 58% 8 12
15:00 34° 60% 7 11
16:00 34° 59% 5 9
17:00 33° 59% 4 8
18:00 33° 58% 3 6
19:00 32° 58% 2 6
20:00 30° 57% 1 5
21:00 29° 57% 2 5
22:00 29° 56% 1 8
23:00 28° 55% 5 12
07/09
Δευτέρα 7 Σεπτεμβρίου Ώρα Καιρός Θερμ. (°C) Υγρασία (%) Άνεμος (Knts) Ριπές (Knts) Διεύθ. 00:00 28° 54% 8 15
01:00 28° 54% 6 12
02:00 27° 53% 5 9
03:00 27° 53% 3 6
04:00 27° 56% 2 5
05:00 26° 58% 2 5
06:00 26° 61% 1 4
07:00 26° 62% 1 4
08:00 27° 63% 1 5
09:00 27° 64% 2 5
10:00 28° 63% 3 7
11:00 28° 62% 5 9
12:00 29° 61% 7 11
13:00 29° 59% 8 13
14:00 29° 56% 9 14
15:00 29° 54% 11 16
16:00 29° 55% 11 16
17:00 28° 56% 11 16
18:00 28° 57% 11 16
19:00 27° 59% 9 14
20:00 27° 61% 8 12
21:00 26° 63% 6 10
22:00 26° 63% 4 8
23:00 25° 62% 2 6
08/09
Τρίτη 8 Σεπτεμβρίου Ώρα Καιρός Θερμ. (°C) Υγρασία (%) Άνεμος (Knts) Ριπές (Knts) Διεύθ. 00:00 25° 62% 1 4
01:00 25° 61% 1 4
02:00 24° 59% 1 4
03:00 24° 58% 1 4
04:00 24° 59% 1 4
05:00 23° 61% 1 5
06:00 23° 62% 2 5
07:00 24° 60% 2 5
08:00 24° 59% 2 6
09:00 25° 57% 3 6
10:00 26° 57% 3 6
11:00 26° 57% 3 7
12:00 27° 57% 4 7
13:00 27° 59% 4 9
14:00 27° 60% 6 10
15:00 27° 62% 8 12
16:00 27° 60% 8 13
17:00 26° 58% 9 13
18:00 26° 56% 9 14
19:00 26° 57% 8 13
20:00 25° 58% 7 11
21:00 25° 59% 6 10
22:00 25° 58% 5 9
23:00 24° 57% 5 8
09/09
Τετάρτη 9 Σεπτεμβρίου Ώρα Καιρός Θερμ. (°C) Υγρασία (%) Άνεμος (Knts) Ριπές (Knts) Διεύθ. 00:00 24° 56% 4 7
01:00 24° 57% 3 6
02:00 24° 57% 3 6
03:00 24° 58% 2 5
04:00 24° 59% 2 5
05:00 23° 60% 1 4
06:00 23° 61% 1 4
07:00 23° 61% 1 4
08:00 23° 61% 1 4
09:00 23° 61% 1 4
10:00 24° 61% 1 5
11:00 25° 61% 3 6
12:00 26° 61% 4 7
13:00 26° 61% 5 9
14:00 27° 60% 6 10
15:00 27° 60% 8 12
16:00 27° 61% 8 12
17:00 26° 61% 8 13
18:00 26° 62% 8 13
19:00 25° 62% 7 12
20:00 25° 62% 7 11
21:00 24° 62% 6 10
22:00 24° 62% 5 9
23:00 23° 62% 4 7
10/09
Πέμπτη 10 Σεπτεμβρίου Ώρα Καιρός Θερμ. (°C) Υγρασία (%) Άνεμος (Knts) Ριπές (Knts) Διεύθ. 00:00 23° 62% 3 6
01:00 23° 62% 2 5
02:00 23° 63% 2 5
03:00 23° 63% 1 4
04:00 23° 63% 1 4
05:00 22° 63% 1 4
06:00 22° 63% 1 4
07:00 23° 64% 2 5
08:00 23° 64% 2 5
09:00 24° 65% 3 6
10:00 25° 65% 3 7
11:00 25° 64% 4 8
12:00 26° 64% 5 9
13:00 26° 64% 6 10
14:00 26° 65% 6 10
15:00 26° 65% 7 11
16:00 26° 66% 8 12
17:00 26° 66% 9 14
18:00 26° 67% 10 15
19:00 25° 68% 9 14
20:00 24° 69% 8 12
21:00 23° 70% 7 11
22:00 23° 69% 5 9
23:00 23° 69% 3 6
11/09
Παρασκευή 11 Σεπτεμβρίου Ώρα Καιρός Θερμ. (°C) Υγρασία (%) Άνεμος (Knts) Ριπές (Knts) Διεύθ. 00:00 23° 68% 1 4
01:00 23° 67% 1 4
02:00 23° 65% 1 4
03:00 23° 64% 1 4
04:00 23° 64% 1 4
05:00 23° 63% 1 4
06:00 23° 63% 1 4
07:00 23° 64% 1 4
08:00 24° 64% 1 4
09:00 24° 65% 1 4
10:00 25° 65% 2 5
11:00 25° 65% 3 6
12:00 26° 65% 4 7
13:00 27° 64% 4 8
14:00 27° 63% 5 8
15:00 28° 62% 5 9
16:00 28° 62% 6 11
17:00 27° 63% 8 12
18:00 27° 63% 9 14
19:00 26° 67% 8 12
20:00 25° 70% 6 11
21:00 24° 74% 5 9
22:00 24° 73% 4 7
23:00 24° 71% 2 6
12/09
Σάββατο 12 Σεπτεμβρίου Ώρα Καιρός Θερμ. (°C) Υγρασία (%) Άνεμος (Knts) Ριπές (Knts) Διεύθ. 00:00 24° 70% 1 4
01:00 24° 69% 1 5
02:00 24° 69% 2 5
03:00 24° 68% 3 6
Developed by Rousis Dimitris - LinkedIn profile
Powered by: WeatherDom - Christos Chatzoudis
Πρόγνωση ανέμου — Perea Ενημέρωση: 04/09 04:37 Ωριαία Ανά 3 ώρες
Ένταση 0 → 40 kt · μαύρη γραμμή = μέσος άνεμος, χρωματιστός φάκελος = ριπές